createdAt,value
2017-06-02T00:00:32.426Z,99.99
2017-06-02T00:01:13.025Z,99.99
2017-06-02T00:01:53.615Z,99.99
2017-06-02T00:02:34.208Z,99.99
2017-06-02T00:03:14.787Z,99.99
2017-06-02T00:03:55.368Z,99.99
2017-06-02T00:04:35.951Z,99.99
2017-06-02T00:05:16.551Z,99.99
2017-06-02T00:05:57.125Z,99.99
2017-06-02T00:06:37.719Z,99.99
2017-06-02T00:07:18.292Z,99.99
2017-06-02T00:07:58.888Z,99.99
2017-06-02T00:08:39.500Z,99.99
2017-06-02T00:09:20.080Z,99.99
2017-06-02T00:10:00.711Z,99.99
2017-06-02T00:10:41.224Z,99.99
2017-06-02T00:11:21.799Z,99.99
2017-06-02T00:12:02.379Z,99.99
2017-06-02T00:12:42.960Z,99.99
2017-06-02T00:13:23.560Z,99.99
2017-06-02T00:14:04.142Z,99.99
2017-06-02T00:14:44.716Z,99.99
2017-06-02T00:15:25.289Z,99.99
2017-06-02T00:16:05.863Z,99.99
2017-06-02T00:16:46.449Z,99.99
2017-06-02T00:17:27.035Z,99.99
2017-06-02T00:18:07.614Z,99.99
2017-06-02T00:18:48.211Z,99.99
2017-06-02T00:19:28.800Z,99.99
2017-06-02T00:20:09.371Z,99.99
2017-06-02T00:20:49.965Z,99.99
2017-06-02T00:21:30.552Z,99.99
2017-06-02T00:22:11.130Z,99.99
2017-06-02T00:22:51.722Z,99.99
2017-06-02T00:23:32.313Z,99.99
2017-06-02T00:24:12.879Z,99.99
2017-06-02T00:24:53.473Z,99.99
2017-06-02T00:25:34.059Z,99.99
2017-06-02T00:26:14.638Z,99.99
2017-06-02T00:26:55.211Z,99.99
2017-06-02T00:27:35.794Z,99.99
2017-06-02T00:28:16.375Z,99.99
2017-06-02T00:28:56.952Z,99.99
2017-06-02T00:29:37.533Z,99.99
2017-06-02T00:30:18.098Z,99.99
2017-06-02T00:30:58.679Z,99.99
2017-06-02T00:31:39.248Z,99.99
2017-06-02T00:32:19.818Z,99.99
2017-06-02T00:33:00.386Z,99.99
2017-06-02T00:33:40.979Z,99.99
2017-06-02T00:34:21.551Z,99.99
2017-06-02T00:35:02.143Z,99.99
2017-06-02T00:35:42.726Z,99.99
2017-06-02T00:36:23.308Z,99.99
2017-06-02T00:37:03.872Z,99.99
2017-06-02T00:37:44.452Z,99.99
2017-06-02T00:38:25.045Z,99.99
2017-06-02T00:39:05.617Z,99.99
2017-06-02T00:39:46.204Z,99.99
2017-06-02T00:40:26.793Z,99.99
2017-06-02T00:41:07.366Z,99.99
2017-06-02T00:41:47.935Z,99.99
2017-06-02T00:42:28.507Z,99.99
2017-06-02T00:43:09.088Z,99.99
2017-06-02T00:43:49.681Z,99.99
2017-06-02T00:44:30.268Z,99.99
2017-06-02T00:45:10.849Z,99.99
2017-06-02T00:45:51.432Z,99.99
2017-06-02T00:46:31.999Z,99.99
2017-06-02T00:47:12.571Z,99.99
2017-06-02T00:47:53.142Z,99.99
2017-06-02T00:48:33.746Z,99.99
2017-06-02T00:49:14.402Z,99.99
2017-06-02T00:49:54.977Z,99.99
2017-06-02T00:50:35.552Z,99.99
2017-06-02T00:51:16.128Z,99.99
2017-06-02T00:51:56.712Z,99.99
2017-06-02T00:52:37.300Z,99.99
2017-06-02T00:53:17.879Z,99.99
2017-06-02T00:53:58.454Z,99.99
2017-06-02T00:54:39.018Z,99.99
2017-06-02T00:55:19.593Z,99.99
2017-06-02T00:56:00.179Z,99.99
2017-06-02T00:56:40.754Z,99.99
2017-06-02T00:57:21.327Z,99.99
2017-06-02T00:58:01.908Z,99.99
2017-06-02T00:58:42.479Z,99.99
2017-06-02T00:59:23.018Z,99.99
2017-06-02T01:00:03.560Z,99.99
2017-06-02T01:00:44.100Z,99.99
2017-06-02T01:01:24.633Z,99.99
2017-06-02T01:02:05.163Z,99.99
2017-06-02T01:02:45.705Z,99.99
2017-06-02T01:03:26.249Z,99.99
2017-06-02T01:04:06.793Z,99.99
2017-06-02T01:04:47.341Z,99.99
2017-06-02T01:05:27.906Z,99.99
2017-06-02T01:06:08.490Z,99.99
2017-06-02T01:06:49.072Z,99.99
2017-06-02T01:07:29.655Z,99.99
2017-06-02T01:08:10.224Z,99.99
2017-06-02T01:08:50.796Z,99.99
2017-06-02T01:09:31.372Z,99.99
2017-06-02T01:10:11.928Z,99.99
2017-06-02T01:10:52.478Z,99.99
2017-06-02T01:11:33.025Z,99.99
2017-06-02T01:12:13.548Z,99.99
2017-06-02T01:12:54.085Z,99.99
2017-06-02T01:13:34.626Z,99.99
2017-06-02T01:14:15.165Z,99.99
2017-06-02T01:14:55.699Z,99.99
2017-06-02T01:15:36.242Z,99.99
2017-06-02T01:16:16.789Z,99.99
2017-06-02T01:16:57.323Z,99.99
2017-06-02T01:17:37.868Z,99.99
2017-06-02T01:18:18.402Z,99.99
2017-06-02T01:18:58.951Z,99.99
2017-06-02T01:19:39.498Z,99.99
2017-06-02T01:20:20.030Z,99.99
2017-06-02T01:21:00.565Z,99.99
2017-06-02T01:21:41.110Z,99.99
2017-06-02T01:22:21.652Z,99.99
2017-06-02T01:23:02.199Z,99.99
2017-06-02T01:23:42.738Z,99.99
2017-06-02T01:24:23.267Z,99.99
2017-06-02T01:25:03.821Z,99.99
2017-06-02T01:25:44.361Z,99.99
2017-06-02T01:26:24.901Z,99.99
2017-06-02T01:27:05.441Z,99.99
2017-06-02T01:27:45.978Z,99.99
2017-06-02T01:28:26.518Z,99.99
2017-06-02T01:29:07.064Z,99.99
2017-06-02T01:29:47.605Z,99.99
2017-06-02T01:30:28.145Z,99.99
2017-06-02T01:31:08.685Z,99.99
2017-06-02T01:31:49.223Z,99.99
2017-06-02T01:32:29.762Z,99.99
2017-06-02T01:33:10.293Z,99.99
2017-06-02T01:33:50.845Z,99.99
2017-06-02T01:34:31.398Z,99.99
2017-06-02T01:35:11.944Z,99.99
2017-06-02T01:35:52.488Z,99.99
2017-06-02T01:36:33.034Z,99.99
2017-06-02T01:37:13.605Z,99.99
2017-06-02T01:37:54.140Z,99.99
2017-06-02T01:38:34.687Z,99.99
2017-06-02T01:39:15.230Z,99.99
2017-06-02T01:39:55.771Z,99.99
2017-06-02T01:40:36.311Z,99.99
2017-06-02T01:41:16.858Z,99.99
2017-06-02T01:41:57.393Z,99.99
2017-06-02T01:42:37.929Z,99.99
2017-06-02T01:43:18.469Z,99.99
2017-06-02T01:43:59.006Z,99.99
2017-06-02T01:44:39.552Z,99.99
2017-06-02T01:45:20.083Z,99.99
2017-06-02T01:46:00.621Z,99.99
2017-06-02T01:46:41.163Z,99.99
2017-06-02T01:47:21.704Z,99.99
2017-06-02T01:48:02.248Z,99.99
2017-06-02T01:48:42.792Z,99.99
2017-06-02T01:49:23.319Z,99.99
2017-06-02T01:50:03.861Z,99.99
2017-06-02T01:50:44.395Z,99.99
2017-06-02T01:51:25.005Z,99.99
2017-06-02T01:52:05.541Z,99.99
2017-06-02T01:52:46.089Z,99.99
2017-06-02T01:53:26.630Z,99.99
2017-06-02T01:54:07.172Z,99.99
2017-06-02T01:54:47.714Z,99.99
2017-06-02T01:55:28.256Z,99.99
2017-06-02T01:56:08.811Z,99.99
2017-06-02T01:56:49.346Z,99.99
2017-06-02T01:57:29.889Z,99.99
2017-06-02T01:58:10.435Z,99.99
2017-06-02T01:58:50.980Z,99.99
2017-06-02T01:59:31.526Z,99.99
2017-06-02T02:00:12.068Z,99.99
2017-06-02T02:00:52.614Z,99.99
2017-06-02T02:01:33.151Z,99.99
2017-06-02T02:02:13.698Z,99.99
2017-06-02T02:02:54.242Z,99.99
2017-06-02T02:03:34.778Z,99.99
2017-06-02T02:04:15.318Z,99.99
2017-06-02T02:04:55.856Z,99.99
2017-06-02T02:05:36.396Z,99.99
2017-06-02T02:06:16.932Z,99.99
2017-06-02T02:06:57.476Z,99.99
2017-06-02T02:07:38.024Z,99.99
2017-06-02T02:08:18.568Z,99.99
2017-06-02T02:08:59.103Z,99.99
2017-06-02T02:09:39.640Z,99.99
2017-06-02T02:10:20.181Z,99.99
2017-06-02T02:11:00.719Z,99.99
2017-06-02T02:11:41.268Z,99.99
2017-06-02T02:12:21.811Z,99.99
2017-06-02T02:13:02.353Z,99.99
2017-06-02T02:13:42.890Z,99.99
2017-06-02T02:14:23.433Z,99.99
2017-06-02T02:15:03.978Z,99.99
2017-06-02T02:15:44.528Z,99.99
2017-06-02T02:16:25.059Z,99.99
2017-06-02T02:17:05.588Z,99.99
2017-06-02T02:17:46.141Z,99.99
2017-06-02T02:18:26.730Z,99.99
2017-06-02T02:19:07.226Z,99.99
2017-06-02T02:19:47.770Z,99.99
2017-06-02T02:20:28.320Z,99.99
2017-06-02T02:21:08.854Z,99.99
2017-06-02T02:21:49.392Z,99.99
2017-06-02T02:22:29.937Z,99.99
2017-06-02T02:23:10.482Z,99.99
2017-06-02T02:23:51.018Z,99.99
2017-06-02T02:24:31.563Z,99.99
2017-06-02T02:25:12.102Z,99.99
2017-06-02T02:25:52.663Z,99.99
2017-06-02T02:26:33.237Z,99.99
2017-06-02T02:27:13.728Z,99.99
2017-06-02T02:27:54.265Z,99.99
2017-06-02T02:28:34.805Z,99.99
2017-06-02T02:29:15.333Z,99.99
2017-06-02T02:29:55.871Z,99.99
2017-06-02T02:30:36.414Z,99.99
2017-06-02T02:31:16.951Z,99.99
2017-06-02T02:31:57.490Z,99.99
2017-06-02T02:32:38.036Z,99.99
2017-06-02T02:33:18.582Z,99.99
2017-06-02T02:33:59.125Z,99.99
2017-06-02T02:34:39.673Z,99.99
2017-06-02T02:35:20.216Z,99.99
2017-06-02T02:36:00.751Z,99.99
2017-06-02T02:36:41.284Z,99.99
2017-06-02T02:37:21.832Z,99.99
2017-06-02T02:38:02.376Z,99.99
2017-06-02T02:38:42.915Z,99.99
2017-06-02T02:39:23.460Z,99.99
2017-06-02T02:40:04.002Z,99.99
2017-06-02T02:40:44.541Z,99.99
2017-06-02T02:41:25.091Z,99.99
2017-06-02T02:42:05.632Z,99.99
2017-06-02T02:42:46.177Z,99.99
2017-06-02T02:43:26.724Z,99.99
2017-06-02T02:44:07.272Z,99.99
2017-06-02T02:44:47.815Z,99.99
2017-06-02T02:45:28.364Z,99.99
2017-06-02T02:46:08.912Z,99.99
2017-06-02T02:46:49.452Z,99.99
2017-06-02T02:47:29.994Z,99.99
2017-06-02T02:48:10.543Z,99.99
2017-06-02T02:48:51.083Z,99.99
2017-06-02T02:49:31.629Z,99.99
2017-06-02T02:50:12.171Z,99.99
2017-06-02T02:50:52.714Z,99.99
2017-06-02T02:51:33.257Z,99.99
2017-06-02T02:52:13.804Z,99.99
2017-06-02T02:52:54.341Z,99.99
2017-06-02T02:53:34.884Z,99.99
2017-06-02T02:54:15.425Z,99.99
2017-06-02T02:54:55.970Z,99.99
2017-06-02T02:55:36.509Z,99.99
2017-06-02T02:56:17.059Z,99.99
2017-06-02T02:56:57.592Z,99.99
2017-06-02T02:57:38.168Z,99.99
2017-06-02T02:58:18.660Z,99.99
2017-06-02T02:58:59.187Z,99.99
2017-06-02T02:59:39.724Z,99.99
2017-06-02T03:00:20.270Z,99.99
2017-06-02T03:01:00.816Z,99.99
2017-06-02T03:01:41.348Z,99.99
2017-06-02T03:02:21.884Z,99.99
2017-06-02T03:03:02.439Z,99.99
2017-06-02T03:03:42.975Z,99.99
2017-06-02T03:04:23.516Z,99.99
2017-06-02T03:05:04.057Z,99.99
2017-06-02T03:05:44.598Z,99.99
2017-06-02T03:06:25.148Z,99.99
2017-06-02T03:07:05.687Z,99.99
2017-06-02T03:07:46.238Z,99.99
2017-06-02T03:08:26.841Z,99.99
2017-06-02T03:09:07.316Z,99.99
2017-06-02T03:09:47.862Z,99.99
2017-06-02T03:10:28.402Z,99.99
2017-06-02T03:11:08.944Z,99.99
2017-06-02T03:11:49.485Z,99.99
2017-06-02T03:12:30.026Z,99.99
2017-06-02T03:13:10.574Z,99.99
2017-06-02T03:13:51.099Z,99.99
2017-06-02T03:14:31.698Z,99.99
2017-06-02T03:15:12.227Z,99.99
2017-06-02T03:15:52.766Z,99.99
2017-06-02T03:16:33.315Z,99.99
2017-06-02T03:17:13.859Z,99.99
2017-06-02T03:17:54.406Z,99.99
2017-06-02T03:18:34.950Z,99.99
2017-06-02T03:19:15.498Z,99.99
2017-06-02T03:19:56.036Z,99.99
2017-06-02T03:20:36.571Z,99.99
2017-06-02T03:21:17.116Z,99.99
2017-06-02T03:21:57.655Z,99.99
2017-06-02T03:22:38.196Z,99.99
2017-06-02T03:23:18.740Z,99.99
2017-06-02T03:23:59.271Z,99.99
2017-06-02T03:24:39.817Z,99.99
2017-06-02T03:25:20.357Z,99.99
2017-06-02T03:26:00.886Z,99.99
2017-06-02T03:26:41.414Z,99.99
2017-06-02T03:27:21.952Z,99.99
2017-06-02T03:28:02.494Z,99.99
2017-06-02T03:28:43.033Z,99.99
2017-06-02T03:29:23.570Z,99.99
2017-06-02T03:30:04.112Z,99.99
2017-06-02T03:30:44.635Z,99.99
2017-06-02T03:31:25.181Z,99.99
2017-06-02T03:32:05.827Z,99.99
2017-06-02T03:32:46.368Z,99.99
2017-06-02T03:33:26.906Z,99.99
2017-06-02T03:34:07.452Z,99.99
2017-06-02T03:34:47.994Z,99.99
2017-06-02T03:35:28.536Z,99.99
2017-06-02T03:36:09.089Z,99.99
2017-06-02T03:36:49.631Z,99.99
2017-06-02T03:37:30.178Z,99.99
2017-06-02T03:38:10.721Z,99.99
2017-06-02T03:38:51.269Z,99.99
2017-06-02T03:39:31.811Z,99.99
2017-06-02T03:40:12.354Z,99.99
2017-06-02T03:40:52.898Z,99.99
2017-06-02T03:41:33.447Z,99.99
2017-06-02T03:42:13.991Z,99.99
2017-06-02T03:42:54.534Z,99.99
2017-06-02T03:43:35.056Z,99.99
2017-06-02T03:44:15.593Z,99.99
2017-06-02T03:44:56.143Z,99.99
2017-06-02T03:45:36.735Z,99.99
2017-06-02T03:46:17.264Z,99.99
2017-06-02T03:46:57.812Z,99.99
2017-06-02T03:47:38.358Z,99.99
2017-06-02T03:48:18.905Z,99.99
2017-06-02T03:48:59.457Z,99.99
2017-06-02T03:49:40.030Z,99.99
2017-06-02T03:50:20.565Z,99.99
2017-06-02T03:51:01.110Z,99.99
2017-06-02T03:51:41.659Z,99.99
2017-06-02T03:52:22.203Z,99.99
2017-06-02T03:53:02.745Z,99.99
2017-06-02T03:53:43.287Z,99.99
2017-06-02T03:54:23.840Z,99.99
2017-06-02T03:55:04.393Z,99.99
2017-06-02T03:55:44.939Z,99.99
2017-06-02T03:56:25.486Z,99.99
2017-06-02T03:57:06.018Z,99.99
2017-06-02T03:57:46.558Z,99.99
2017-06-02T03:58:27.096Z,99.99
2017-06-02T03:59:07.640Z,99.99
2017-06-02T03:59:48.181Z,99.99
2017-06-02T04:00:28.750Z,99.99
2017-06-02T04:01:09.346Z,99.99
2017-06-02T04:01:49.885Z,99.99
2017-06-02T04:02:30.458Z,99.99
2017-06-02T04:03:10.995Z,99.99
2017-06-02T04:03:51.540Z,99.99
2017-06-02T04:04:32.062Z,99.99
2017-06-02T04:05:12.630Z,99.99
2017-06-02T04:05:53.157Z,99.99
2017-06-02T04:06:33.695Z,99.99
2017-06-02T04:07:14.234Z,99.99
2017-06-02T04:07:54.779Z,99.99
2017-06-02T04:08:35.324Z,99.99
2017-06-02T04:09:15.881Z,99.99
2017-06-02T04:09:56.444Z,99.99
2017-06-02T04:10:36.968Z,99.99
2017-06-02T04:11:17.516Z,99.99
2017-06-02T04:11:58.054Z,99.99
2017-06-02T04:12:38.600Z,99.99
2017-06-02T04:13:19.126Z,99.99
2017-06-02T04:13:59.664Z,99.99
2017-06-02T04:14:40.207Z,99.99
2017-06-02T04:15:20.745Z,99.99
2017-06-02T04:16:01.296Z,99.99
2017-06-02T04:16:41.836Z,99.99
2017-06-02T04:17:22.394Z,99.99
2017-06-02T04:18:02.942Z,99.99
2017-06-02T04:18:43.493Z,99.99
2017-06-02T04:19:24.045Z,99.99
2017-06-02T04:20:04.592Z,99.99
2017-06-02T04:20:46.156Z,99.99
2017-06-02T04:21:26.727Z,99.99
2017-06-02T04:22:07.256Z,99.99
2017-06-02T04:22:47.804Z,99.99
2017-06-02T04:23:28.354Z,99.99
2017-06-02T04:24:08.888Z,99.99
2017-06-02T04:24:49.452Z,99.99
2017-06-02T04:25:29.997Z,99.99
2017-06-02T04:26:10.547Z,99.99
2017-06-02T04:26:51.096Z,99.99
2017-06-02T04:27:31.636Z,99.99
2017-06-02T04:28:12.176Z,99.99
2017-06-02T04:28:52.706Z,99.99
2017-06-02T04:29:33.258Z,99.99
2017-06-02T04:30:13.795Z,99.99
2017-06-02T04:30:54.338Z,99.99
2017-06-02T04:31:34.887Z,99.99
2017-06-02T04:32:15.448Z,99.99
2017-06-02T04:32:56.016Z,99.99
2017-06-02T04:33:36.544Z,99.99
2017-06-02T04:34:17.101Z,99.99
2017-06-02T04:34:57.645Z,99.99
2017-06-02T04:35:38.196Z,99.99
2017-06-02T04:36:18.761Z,99.99
2017-06-02T04:36:59.322Z,99.99
2017-06-02T04:37:39.840Z,99.99
2017-06-02T04:38:20.396Z,99.99
2017-06-02T04:39:00.943Z,99.99
2017-06-02T04:39:41.483Z,99.99
2017-06-02T04:40:22.026Z,99.99
2017-06-02T04:41:02.547Z,99.99
2017-06-02T04:41:43.120Z,99.99
2017-06-02T04:42:23.658Z,99.99
2017-06-02T04:43:04.187Z,99.99
2017-06-02T04:43:44.750Z,99.99
2017-06-02T04:44:25.302Z,99.99
2017-06-02T04:45:05.849Z,99.99
2017-06-02T04:45:46.390Z,99.99
2017-06-02T04:46:26.949Z,99.99
2017-06-02T04:47:07.500Z,99.99
2017-06-02T04:47:48.051Z,99.99
2017-06-02T04:48:28.606Z,99.99
2017-06-02T04:49:09.142Z,99.99
2017-06-02T04:49:49.691Z,99.99
2017-06-02T04:50:30.232Z,99.99
2017-06-02T04:51:10.834Z,99.99
2017-06-02T04:51:51.383Z,99.99
2017-06-02T04:52:31.920Z,99.99
2017-06-02T04:53:12.462Z,99.99
2017-06-02T04:53:53.016Z,99.99
2017-06-02T04:54:33.556Z,99.99
2017-06-02T04:55:14.099Z,99.99
2017-06-02T04:55:54.644Z,99.99
2017-06-02T04:56:35.187Z,99.99
2017-06-02T04:57:15.732Z,99.99
2017-06-02T04:57:56.283Z,99.99
2017-06-02T04:58:36.831Z,99.99
2017-06-02T04:59:17.375Z,99.99
2017-06-02T04:59:57.923Z,99.99
2017-06-02T05:00:38.475Z,99.99
2017-06-02T05:01:18.998Z,99.99
2017-06-02T05:01:59.550Z,99.99
2017-06-02T05:02:40.101Z,99.99
2017-06-02T05:03:20.646Z,99.99
2017-06-02T05:04:01.197Z,99.99
2017-06-02T05:04:41.720Z,99.99
2017-06-02T05:05:22.268Z,99.99
2017-06-02T05:06:02.813Z,99.99
2017-06-02T05:06:43.349Z,99.99
2017-06-02T05:07:24.106Z,99.99
2017-06-02T05:08:04.646Z,99.99
2017-06-02T05:08:45.947Z,99.99
2017-06-02T05:09:26.487Z,99.99
2017-06-02T05:10:07.017Z,99.99
2017-06-02T05:10:47.577Z,99.99
2017-06-02T05:11:28.117Z,99.99
2017-06-02T05:12:08.662Z,99.99
2017-06-02T05:12:49.200Z,99.99
2017-06-02T05:13:29.758Z,99.99
2017-06-02T05:14:10.308Z,99.99
2017-06-02T05:14:50.849Z,99.99
2017-06-02T05:15:31.389Z,99.99
2017-06-02T05:16:11.938Z,99.99
2017-06-02T05:16:52.583Z,99.99
2017-06-02T05:17:33.098Z,99.99
2017-06-02T05:18:13.640Z,99.99
2017-06-02T05:18:54.193Z,99.99
2017-06-02T05:19:34.750Z,99.99
2017-06-02T05:20:15.291Z,99.99
2017-06-02T05:20:55.832Z,99.99
2017-06-02T05:23:15.184Z,99.99
2017-06-02T05:23:55.781Z,99.99
2017-06-02T05:24:36.315Z,99.99
2017-06-02T05:25:16.943Z,99.99
2017-06-02T05:25:57.492Z,99.99
2017-06-02T05:26:38.035Z,99.99
2017-06-02T05:27:18.682Z,99.99
2017-06-02T05:27:59.222Z,99.99
2017-06-02T05:28:39.773Z,99.99
2017-06-02T05:29:20.318Z,99.99
2017-06-02T05:30:00.860Z,99.99
2017-06-02T05:30:41.403Z,99.99
2017-06-02T05:31:21.942Z,99.99
2017-06-02T05:32:02.473Z,99.99
2017-06-02T05:32:43.024Z,99.99
2017-06-02T05:33:23.573Z,99.99
2017-06-02T05:34:04.105Z,99.99
2017-06-02T05:34:44.656Z,99.99
2017-06-02T05:35:25.203Z,99.99
2017-06-02T05:36:05.745Z,99.99
2017-06-02T05:36:46.284Z,99.99
2017-06-02T05:37:26.818Z,99.99
2017-06-02T05:38:07.373Z,99.99
2017-06-02T05:38:47.912Z,99.99
2017-06-02T05:39:28.440Z,99.99
2017-06-02T05:40:08.980Z,99.99
2017-06-02T05:40:49.509Z,99.99
2017-06-02T05:41:30.050Z,99.99
2017-06-02T05:42:10.589Z,99.99
2017-06-02T05:42:51.125Z,99.99
2017-06-02T05:43:31.658Z,99.99
2017-06-02T05:44:12.196Z,99.99
2017-06-02T05:44:52.743Z,99.99
2017-06-02T05:45:33.278Z,99.99
2017-06-02T05:46:13.821Z,99.99
2017-06-02T05:46:54.369Z,99.99
2017-06-02T05:47:34.916Z,99.99
2017-06-02T05:48:15.458Z,99.99
2017-06-02T05:48:56.010Z,99.99
2017-06-02T05:49:36.554Z,99.99
2017-06-02T05:50:17.156Z,99.99
2017-06-02T05:50:57.694Z,99.99
2017-06-02T05:51:38.240Z,99.99
2017-06-02T05:52:18.773Z,99.99
2017-06-02T05:52:59.321Z,99.99
2017-06-02T05:53:39.866Z,99.99
2017-06-02T05:54:20.403Z,99.99
2017-06-02T05:55:01.173Z,99.99
2017-06-02T05:55:41.827Z,99.99
2017-06-02T05:56:22.377Z,99.99
2017-06-02T05:57:02.921Z,99.99
2017-06-02T05:57:43.461Z,99.99
2017-06-02T05:58:24.008Z,99.99
2017-06-02T05:59:04.543Z,99.99
2017-06-02T05:59:45.083Z,99.99
2017-06-02T06:00:25.623Z,99.99
2017-06-02T06:01:06.160Z,99.99
2017-06-02T06:01:46.699Z,99.99
2017-06-02T06:02:27.234Z,99.99
2017-06-02T06:03:07.779Z,99.99
2017-06-02T06:03:48.313Z,99.99
2017-06-02T06:04:28.847Z,99.99
2017-06-02T06:05:09.384Z,99.99
2017-06-02T06:05:49.918Z,99.99
2017-06-02T06:06:30.446Z,99.99
2017-06-02T06:07:10.994Z,99.99
2017-06-02T06:07:51.540Z,99.99
2017-06-02T06:08:32.083Z,99.99
2017-06-02T06:09:12.623Z,99.99
2017-06-02T06:09:53.163Z,99.99
2017-06-02T06:10:33.702Z,99.99
2017-06-02T06:11:14.239Z,99.99
2017-06-02T06:11:54.778Z,99.99
2017-06-02T06:12:35.321Z,99.99
2017-06-02T06:13:15.873Z,99.99
2017-06-02T06:13:56.408Z,99.99
2017-06-02T06:14:36.953Z,99.99
2017-06-02T06:15:17.491Z,99.99
2017-06-02T06:15:58.010Z,99.99
2017-06-02T06:16:38.551Z,99.99
2017-06-02T06:17:19.095Z,99.99
2017-06-02T06:17:59.629Z,99.99
2017-06-02T06:18:40.169Z,99.99
2017-06-02T06:19:20.710Z,99.99
2017-06-02T06:20:01.254Z,99.99
2017-06-02T06:20:41.806Z,99.99
2017-06-02T06:21:22.362Z,99.99
2017-06-02T06:22:02.908Z,99.99
2017-06-02T06:22:43.447Z,99.99
2017-06-02T06:23:24.021Z,99.99
2017-06-02T06:24:04.566Z,99.99
2017-06-02T06:24:45.110Z,99.99
2017-06-02T06:25:25.647Z,99.99
2017-06-02T06:26:06.189Z,99.99
2017-06-02T06:26:46.726Z,99.99
2017-06-02T06:27:27.270Z,99.99
2017-06-02T06:28:07.818Z,99.99
2017-06-02T06:28:48.358Z,99.99
2017-06-02T06:29:28.900Z,99.99
2017-06-02T06:30:09.438Z,99.99
2017-06-02T06:30:49.975Z,99.99
2017-06-02T06:31:30.518Z,99.99
2017-06-02T06:32:11.060Z,99.99
2017-06-02T12:11:02.524Z,81.18
2017-06-02T12:11:43.732Z,79.53
2017-06-02T12:12:24.372Z,79.63
2017-06-02T12:13:05.047Z,79.63
2017-06-02T12:13:45.589Z,78.16
2017-06-02T12:14:26.194Z,77
2017-06-02T12:15:06.799Z,77.19
2017-06-02T12:15:47.378Z,76.57
2017-06-02T12:16:27.923Z,76.96
2017-06-02T12:17:08.472Z,76.28
2017-06-02T12:17:49.021Z,75.49
2017-06-02T12:18:29.571Z,74.62
2017-06-02T12:19:10.127Z,74.82
2017-06-02T12:19:50.696Z,74.33
2017-06-02T12:20:31.258Z,73.94
2017-06-02T12:21:11.812Z,73.84
2017-06-02T12:21:52.354Z,73.84
2017-06-02T12:22:32.904Z,74
2017-06-02T12:23:13.444Z,75.46
2017-06-02T12:23:53.994Z,75.46
2017-06-02T12:24:34.545Z,76.34
2017-06-02T12:25:15.092Z,76.08
2017-06-02T12:25:55.655Z,75.59
2017-06-02T12:26:36.224Z,75.79
2017-06-02T12:27:16.780Z,76.57
2017-06-02T12:27:57.331Z,76.34
2017-06-02T12:28:37.880Z,77.8
2017-06-02T12:29:18.489Z,79.71
2017-06-02T12:29:59.041Z,80.74
2017-06-02T12:30:39.604Z,80.64
2017-06-02T12:31:20.266Z,80.29
2017-06-02T12:32:00.821Z,78.53
2017-06-02T12:32:41.381Z,77.5
2017-06-02T12:33:21.934Z,76.34
2017-06-02T12:34:02.523Z,75.89
2017-06-02T12:34:43.165Z,75.01
2017-06-02T12:35:23.836Z,74.82
2017-06-02T12:36:04.456Z,74.91
2017-06-02T12:36:45.084Z,75.36
2017-06-02T12:37:25.675Z,75.07
2017-06-02T12:38:06.219Z,75.32
2017-06-02T12:38:46.763Z,75.03
2017-06-02T12:39:27.309Z,76.07
2017-06-02T12:40:07.858Z,75.93
2017-06-02T12:40:48.463Z,77.1
2017-06-02T12:41:29.026Z,78.23
2017-06-02T12:42:09.673Z,78.81
2017-06-02T12:42:50.288Z,79.39
2017-06-02T12:43:30.831Z,80.42
2017-06-02T12:44:11.449Z,81.68
2017-06-02T12:44:52.021Z,82.52
2017-06-02T12:45:32.615Z,83.49
2017-06-02T12:46:13.168Z,83.97
2017-06-02T12:46:53.837Z,85.14
2017-06-02T12:47:34.387Z,86.07
2017-06-02T12:48:14.967Z,87.13
2017-06-02T12:48:55.554Z,88.88
2017-06-02T12:49:36.106Z,89.17
2017-06-02T12:50:16.661Z,89.85
2017-06-02T12:50:57.209Z,89.76
2017-06-02T12:51:37.753Z,89.61
2017-06-02T12:52:18.302Z,89.41
2017-06-02T12:52:58.856Z,88.68
2017-06-02T12:53:39.396Z,86.98
2017-06-02T12:54:19.947Z,85.85
2017-06-02T12:55:00.497Z,84.3
2017-06-02T12:55:41.046Z,82.68
2017-06-02T12:56:21.592Z,80.64
2017-06-02T12:57:02.146Z,80
2017-06-02T12:57:42.811Z,78.83
2017-06-02T12:58:23.390Z,77.6
2017-06-02T12:59:03.942Z,77.11
2017-06-02T12:59:44.568Z,75.65
2017-06-02T13:00:25.112Z,74.58
2017-06-02T13:01:05.698Z,73.8
2017-06-02T13:01:46.299Z,74.06
2017-06-02T13:02:26.843Z,73.08
2017-06-02T13:03:07.447Z,72.76
2017-06-02T13:03:47.979Z,73.44
2017-06-02T13:04:28.520Z,73.54
2017-06-02T13:05:09.064Z,74.18
2017-06-02T13:05:49.616Z,73.11
2017-06-02T13:06:30.166Z,73.3
2017-06-02T13:07:10.716Z,73.79
2017-06-02T13:07:51.266Z,73.69
2017-06-02T13:08:31.831Z,73.44
2017-06-02T13:09:12.437Z,73.05
2017-06-02T13:09:53.015Z,72.96
2017-06-02T13:10:33.567Z,72.11
2017-06-02T13:11:14.173Z,72.11
2017-06-02T13:11:54.722Z,71.53
2017-06-02T13:12:35.934Z,71.23
2017-06-02T13:13:16.568Z,71.23
2017-06-02T13:13:57.120Z,70.95
2017-06-02T13:14:37.658Z,71.14
2017-06-02T13:15:18.266Z,70.91
2017-06-02T13:15:58.772Z,70.81
2017-06-02T13:16:39.343Z,71.01
2017-06-02T13:17:19.877Z,71.2
2017-06-02T13:18:00.444Z,72.08
2017-06-02T13:18:41.013Z,72.04
2017-06-02T13:19:21.630Z,72.72
2017-06-02T13:20:02.444Z,72.33
2017-06-02T13:20:43.279Z,73.11
2017-06-02T13:21:24.251Z,74.05
2017-06-02T13:22:04.814Z,74.11
2017-06-02T13:22:45.390Z,75.27
2017-06-02T13:23:26.006Z,75.27
2017-06-02T13:24:06.585Z,76.15
2017-06-02T13:24:47.135Z,75.76
2017-06-02T13:25:27.823Z,76.4
2017-06-02T13:26:08.512Z,76.79
2017-06-02T13:26:49.323Z,76.98
2017-06-02T13:27:30.011Z,77.47
2017-06-02T13:28:10.574Z,77.57
2017-06-02T13:28:51.115Z,77.76
2017-06-02T13:29:31.661Z,78.05
2017-06-02T13:30:12.504Z,78.64
2017-06-02T13:30:53.215Z,78.25
2017-06-02T13:31:33.776Z,78.34
2017-06-02T13:32:14.334Z,78.05
2017-06-02T13:32:55.105Z,78.54
2017-06-02T13:33:36.316Z,78.34
2017-06-02T13:34:16.962Z,78.73
2017-06-02T13:34:57.595Z,78.44
2017-06-02T13:35:38.144Z,78.64
2017-06-02T13:36:19.026Z,78.67
2017-06-02T13:36:59.600Z,78.28
2017-06-02T13:37:40.134Z,78.67
2017-06-02T13:38:20.946Z,77.12
2017-06-02T13:39:01.496Z,77.22
2017-06-02T13:39:42.196Z,76.92
2017-06-02T13:40:22.924Z,76.87
2017-06-02T13:41:03.595Z,76.77
2017-06-02T13:41:44.214Z,76.48
